EDFM/MHG METAR and TAF weather

Enter ICAO airport designator
Station Type Date Time Source
EDFM METAR 2021/03/08 11:20 UTC NOAA

EDFM 081120Z VRB03KT 9999 FEW038 SCT043 07/M03 Q1022


Station Type Date Time Source
EDFM Decoded METAR 2021/03/08 11:20 UTC NOAA

Baden Wurttemberg, Neuostheim, Germany (EDFM) 49-28-21N 008-30-56E
Mar 08, 2021 - 06:20 AM EST / 2021.03.08 1120 UTC
Wind: Variable at 3 MPH (3 KT):0
Visibility: greater than 7 mile(s):0
Sky conditions: partly cloudy
Temperature: 44 F (7 C)
Dew Point: 26 F (-3 C)
Relative Humidity: 48%
Pressure (altimeter): 30.18 in. Hg (1022 hPa)
ob: EDFM 081120Z VRB03KT 9999 FEW038 SCT043 07/M03 Q1022
cycle: 11

Station Type Date Time Source
EDFM TAF 2012/03/06 06:30 UTC NOAA

TAF EDFM 060519Z 0606/0621 15004KT 9999 FEW040

Example: see airport list